Time;durP1;ratioP1;P1;durP2;ratioP2;P2;SDS_P1;SDS_P2;PMS_P1;PMS_P2;Temp;Humidity;BMP_temperature;BMP_pressure;BME280_temperature;BME280_humidity;BME280_pressure;Samples;Min_cycle;Max_cycle;Signal;HPM_P1;HPM_P2
2023/03/28 00:01:28;;;;;;;4.70;2.03;;;0.60;99.90;;;;;;5105771;28;20178;-68
2023/03/28 00:03:55;;;;;;;1.70;1.20;;;0.60;99.90;;;;;;5104878;28;20229;-69
2023/03/28 00:06:23;;;;;;;2.80;1.40;;;0.60;99.90;;;;;;5101639;28;20176;-69
2023/03/28 00:08:50;;;;;;;2.43;1.53;;;0.60;99.90;;;;;;5103560;28;20737;-69
2023/03/28 00:11:18;;;;;;;7.60;1.70;;;0.60;99.90;;;;;;5100067;28;20425;-69
2023/03/28 00:13:45;;;;;;;4.37;1.87;;;0.60;99.90;;;;;;5100874;28;20443;-69
2023/03/28 00:16:11;;;;;;;2.73;1.30;;;0.70;99.90;;;;;;5102697;28;20489;-69
2023/03/28 00:18:37;;;;;;;2.53;1.77;;;0.80;99.90;;;;;;5104225;28;20794;-69
2023/03/28 00:21:22;;;;;;;4.83;1.70;;;0.80;99.90;;;;;;5097677;28;20928;-69
2023/03/28 00:23:51;;;;;;;2.40;1.50;;;0.80;99.90;;;;;;5098086;28;20506;-70
2023/03/28 00:26:17;;;;;;;4.20;2.03;;;0.80;99.90;;;;;;5097381;28;20418;-69
2023/03/28 00:28:44;;;;;;;4.60;1.67;;;0.80;99.90;;;;;;5104401;28;20460;-70
2023/03/28 00:31:11;;;;;;;2.07;1.30;;;0.70;99.90;;;;;;5095770;28;20930;-69
2023/03/28 00:33:37;;;;;;;5.10;1.17;;;0.70;99.90;;;;;;5101213;28;20418;-69
2023/03/28 00:36:03;;;;;;;3.63;2.13;;;0.70;99.90;;;;;;5101222;28;20482;-69
2023/03/28 00:38:28;;;;;;;5.80;2.00;;;0.70;99.90;;;;;;5099565;28;20179;-69
2023/03/28 00:40:56;;;;;;;3.03;1.43;;;0.70;99.90;;;;;;5101707;28;20423;-69
2023/03/28 00:43:41;;;;;;;3.07;1.60;;;0.70;99.90;;;;;;5103648;28;20215;-69
2023/03/28 00:46:25;;;;;;;3.10;1.70;;;0.70;99.90;;;;;;5099892;28;21663;-69
2023/03/28 00:48:55;;;;;;;4.73;1.70;;;0.70;99.90;;;;;;5100373;28;20910;-69
2023/03/28 00:51:25;;;;;;;4.97;1.57;;;0.60;99.90;;;;;;5098114;28;21151;-71
2023/03/28 00:53:56;;;;;;;4.07;1.67;;;0.70;99.90;;;;;;5100072;28;20422;-69
2023/03/28 00:56:24;;;;;;;2.67;1.70;;;0.60;99.90;;;;;;5103900;28;20433;-70
2023/03/28 00:58:50;;;;;;;5.23;1.60;;;0.70;99.90;;;;;;5098778;28;20814;-69
2023/03/28 01:01:18;;;;;;;4.70;1.80;;;0.70;99.90;;;;;;5102941;28;20414;-70
2023/03/28 01:03:51;;;;;;;1.40;1.00;;;0.70;99.90;;;;;;5102484;28;20463;-69
2023/03/28 01:06:20;;;;;;;4.90;1.93;;;0.80;99.90;;;;;;5101832;28;20479;-69
2023/03/28 01:08:47;;;;;;;2.43;1.27;;;0.80;99.90;;;;;;5102790;28;20433;-69
2023/03/28 01:11:14;;;;;;;4.83;2.10;;;0.80;99.90;;;;;;5093795;28;20431;-69
2023/03/28 01:13:47;;;;;;;7.63;2.53;;;0.80;99.90;;;;;;5100078;28;20425;-69
2023/03/28 01:16:14;;;;;;;8.13;2.20;;;0.80;99.90;;;;;;5100577;28;20477;-69
2023/03/28 01:18:40;;;;;;;3.43;1.47;;;0.70;99.90;;;;;;5103288;28;20428;-69
2023/03/28 01:21:15;;;;;;;3.77;1.70;;;0.70;99.90;;;;;;5094476;28;20428;-69
2023/03/28 01:24:01;;;;;;;4.00;1.60;;;0.70;99.90;;;;;;5103123;28;20492;-69
2023/03/28 01:26:44;;;;;;;5.50;2.30;;;0.60;99.90;;;;;;5100633;28;20406;-69
2023/03/28 01:29:18;;;;;;;5.77;2.57;;;0.60;99.90;;;;;;5100068;28;20410;-69
2023/03/28 01:32:19;;;;;;;4.10;2.07;;;0.50;99.90;;;;;;5103010;28;20410;-69
2023/03/28 01:35:18;;;;;;;9.47;2.30;;;0.50;99.90;;;;;;5042510;28;20439;-69
2023/03/28 01:37:55;;;;;;;4.10;1.50;;;0.50;99.90;;;;;;5090485;28;20430;-69
2023/03/28 01:40:34;;;;;;;2.10;1.30;;;0.40;99.90;;;;;;5105848;28;20835;-69
2023/03/28 01:43:20;;;;;;;4.07;1.40;;;0.40;99.90;;;;;;5104378;28;20856;-69
2023/03/28 01:46:00;;;;;;;2.70;1.57;;;0.40;99.90;;;;;;5098319;28;20485;-69
2023/03/28 01:48:35;;;;;;;3.83;1.70;;;0.30;99.90;;;;;;5099264;28;20466;-69
2023/03/28 01:51:10;;;;;;;3.90;1.43;;;0.20;99.90;;;;;;5098446;28;20500;-68
2023/03/28 01:53:45;;;;;;;2.77;1.43;;;0.20;99.90;;;;;;5102353;28;20509;-69
2023/03/28 01:56:23;;;;;;;4.73;2.53;;;0.20;99.90;;;;;;5103310;28;20511;-69
2023/03/28 01:58:51;;;;;;;2.00;1.20;;;0.10;99.90;;;;;;5097867;28;20457;-69
2023/03/28 02:01:35;;;;;;;4.53;1.40;;;0.10;99.90;;;;;;5104635;28;20498;-69
2023/03/28 02:04:06;;;;;;;1.97;1.10;;;0.10;99.90;;;;;;5094032;28;20792;-69
2023/03/28 02:06:33;;;;;;;2.67;1.30;;;0.20;99.90;;;;;;5101555;28;21194;-68
2023/03/28 02:09:01;;;;;;;3.87;1.63;;;0.20;99.90;;;;;;5107716;28;20444;-68
2023/03/28 02:11:29;;;;;;;4.40;2.27;;;0.20;99.90;;;;;;5101975;28;20935;-69
2023/03/28 02:14:01;;;;;;;3.30;1.70;;;0.20;99.90;;;;;;5104984;28;20433;-69
2023/03/28 02:16:29;;;;;;;2.80;2.10;;;0.20;99.90;;;;;;5103391;28;20407;-69
2023/03/28 02:18:58;;;;;;;4.17;2.17;;;0.20;99.90;;;;;;5103583;28;20424;-69
2023/03/28 02:21:51;;;;;;;3.93;1.50;;;0.20;99.90;;;;;;5100670;28;20414;-69
2023/03/28 02:24:16;;;;;;;7.23;1.47;;;0.10;99.90;;;;;;5102705;28;20470;-69
2023/03/28 02:26:42;;;;;;;4.67;1.97;;;0.10;99.90;;;;;;5103596;28;20454;-69
2023/03/28 02:29:09;;;;;;;3.40;1.33;;;0.00;99.90;;;;;;5104363;28;20180;-68
2023/03/28 02:31:36;;;;;;;3.40;1.40;;;0.00;99.90;;;;;;5100428;28;20421;-68
2023/03/28 02:34:02;;;;;;;1.53;1.03;;;0.00;99.90;;;;;;5098261;28;20437;-69
2023/03/28 02:36:39;;;;;;;2.03;1.17;;;0.00;99.90;;;;;;5106311;28;20413;-68
2023/03/28 02:39:23;;;;;;;3.70;2.10;;;0.00;99.90;;;;;;5099107;28;20191;-68
2023/03/28 02:42:07;;;;;;;2.93;1.43;;;0.00;99.90;;;;;;5106258;28;20917;-69
2023/03/28 02:44:53;;;;;;;2.70;1.37;;;0.00;99.90;;;;;;5092892;28;20465;-69
2023/03/28 02:47:29;;;;;;;2.07;1.47;;;-0.10;99.90;;;;;;5104096;28;21096;-69
2023/03/28 02:50:17;;;;;;;5.30;2.07;;;-0.10;99.90;;;;;;5108547;28;20415;-69
2023/03/28 02:52:52;;;;;;;1.93;1.20;;;-0.10;99.90;;;;;;5097121;28;20515;-69
2023/03/28 02:55:32;;;;;;;3.73;1.60;;;-0.20;99.90;;;;;;5104062;28;20482;-69
2023/03/28 02:58:07;;;;;;;3.10;1.60;;;-0.30;99.90;;;;;;5104737;28;20417;-69
2023/03/28 03:00:35;;;;;;;1.90;1.27;;;-0.40;99.90;;;;;;5094489;28;20494;-69
2023/03/28 03:03:02;;;;;;;3.93;1.97;;;-0.50;99.90;;;;;;5105299;28;20481;-69
2023/03/28 03:05:29;;;;;;;2.47;1.23;;;-0.50;99.90;;;;;;5105345;28;20890;-69
2023/03/28 03:07:55;;;;;;;3.30;1.80;;;-0.50;99.90;;;;;;5102273;28;20916;-69
2023/03/28 03:10:21;;;;;;;5.90;2.10;;;-0.50;99.90;;;;;;5105300;28;20410;-68
2023/03/28 03:12:47;;;;;;;1.90;1.30;;;-0.50;99.90;;;;;;5099189;28;20426;-68
2023/03/28 03:15:15;;;;;;;3.17;1.60;;;-0.60;99.90;;;;;;5105376;28;20410;-68
2023/03/28 03:17:42;;;;;;;4.23;1.83;;;-0.60;99.90;;;;;;5103993;28;20430;-69
2023/03/28 03:20:08;;;;;;;2.60;1.60;;;-0.60;99.90;;;;;;5101600;28;20508;-69
2023/03/28 03:22:35;;;;;;;2.90;1.33;;;-0.60;99.90;;;;;;5100047;28;20422;-68
2023/03/28 03:25:05;;;;;;;4.00;2.10;;;-0.60;99.90;;;;;;5107936;28;20402;-68
2023/03/28 03:27:33;;;;;;;4.33;1.30;;;-0.70;99.90;;;;;;5103074;28;20413;-69
2023/03/28 03:29:59;;;;;;;3.80;2.10;;;-0.70;99.90;;;;;;5106943;28;20870;-68
2023/03/28 03:32:25;;;;;;;4.43;2.03;;;-0.70;99.90;;;;;;5101926;28;20418;-68
2023/03/28 03:34:51;;;;;;;5.83;2.53;;;-0.80;99.90;;;;;;5104488;28;20176;-68
2023/03/28 03:37:16;;;;;;;4.50;2.07;;;-0.80;99.90;;;;;;5102850;28;20176;-69
2023/03/28 03:39:45;;;;;;;7.60;3.60;;;-0.80;99.90;;;;;;5105730;28;20697;-68
2023/03/28 03:42:11;;;;;;;5.90;2.73;;;-0.80;99.90;;;;;;5101259;28;20200;-68
2023/03/28 03:44:37;;;;;;;11.17;3.90;;;-0.80;99.90;;;;;;5104477;28;20492;-68
2023/03/28 03:47:03;;;;;;;7.93;2.30;;;-0.80;99.90;;;;;;5099894;28;20438;-69
2023/03/28 03:49:29;;;;;;;6.60;3.40;;;-0.90;99.90;;;;;;5104959;28;20176;-68
2023/03/28 03:51:54;;;;;;;9.77;3.90;;;-0.90;99.90;;;;;;5096795;28;20417;-68
2023/03/28 03:54:20;;;;;;;8.00;3.10;;;-1.00;99.90;;;;;;5104510;28;20563;-68
2023/03/28 03:56:47;;;;;;;11.67;4.33;;;-1.00;99.90;;;;;;5102564;28;20180;-68
2023/03/28 03:59:14;;;;;;;6.17;3.43;;;-1.10;99.90;;;;;;5101408;28;20188;-68
2023/03/28 04:01:42;;;;;;;6.33;2.93;;;-1.10;99.90;;;;;;5104699;28;20414;-68
2023/03/28 04:04:09;;;;;;;12.43;4.27;;;-1.10;99.90;;;;;;5107441;28;20453;-68
2023/03/28 04:06:37;;;;;;;3.97;2.43;;;-1.10;99.90;;;;;;5101687;28;20421;-68
2023/03/28 04:09:03;;;;;;;13.17;2.83;;;-1.10;99.90;;;;;;5104412;28;20414;-68
2023/03/28 04:11:29;;;;;;;6.30;3.10;;;-1.10;99.90;;;;;;5098984;28;20434;-69
2023/03/28 04:13:54;;;;;;;6.10;3.37;;;-1.10;99.90;;;;;;5103094;28;20425;-68
2023/03/28 04:16:20;;;;;;;7.70;2.57;;;-1.20;99.90;;;;;;5108276;28;20175;-68
2023/03/28 04:18:49;;;;;;;6.70;2.27;;;-1.20;99.90;;;;;;5104543;28;20647;-68
2023/03/28 04:21:16;;;;;;;5.03;2.13;;;-1.20;99.90;;;;;;5098180;28;20172;-68
2023/03/28 04:23:42;;;;;;;5.97;2.83;;;-1.20;99.90;;;;;;5103226;28;20461;-68
2023/03/28 04:26:08;;;;;;;4.67;1.97;;;-1.20;99.90;;;;;;5095695;28;20918;-68
2023/03/28 04:28:34;;;;;;;4.60;2.47;;;-1.30;99.90;;;;;;5104570;28;20441;-68
2023/03/28 04:31:00;;;;;;;5.10;3.40;;;-1.30;99.90;;;;;;5098721;28;20418;-68
2023/03/28 04:33:29;;;;;;;6.80;3.80;;;-1.40;99.90;;;;;;5096002;28;20903;-68
2023/03/28 04:35:58;;;;;;;5.17;3.70;;;-1.40;99.90;;;;;;5088409;28;20526;-68
2023/03/28 04:38:25;;;;;;;6.00;3.80;;;-1.40;99.90;;;;;;5087719;28;20417;-68
2023/03/28 04:40:56;;;;;;;2.80;1.77;;;-1.40;99.90;;;;;;5091253;28;20415;-68
2023/03/28 04:43:25;;;;;;;4.30;2.10;;;-1.40;99.90;;;;;;5103192;28;20496;-68
2023/03/28 04:45:54;;;;;;;4.90;3.17;;;-1.50;99.90;;;;;;5099329;28;20899;-68
2023/03/28 04:48:21;;;;;;;4.00;2.57;;;-1.50;99.90;;;;;;5103496;28;20426;-68
2023/03/28 04:50:47;;;;;;;6.67;3.10;;;-1.40;99.90;;;;;;5097765;28;20869;-68
2023/03/28 04:53:13;;;;;;;5.30;2.40;;;-1.40;99.90;;;;;;5102984;28;20425;-68
2023/03/28 04:55:39;;;;;;;10.37;3.37;;;-1.50;99.90;;;;;;5100344;28;20180;-68
2023/03/28 04:58:05;;;;;;;5.53;2.13;;;-1.50;99.90;;;;;;5100328;28;20955;-68
2023/03/28 05:00:31;;;;;;;3.90;2.17;;;-1.50;99.90;;;;;;5099040;28;20211;-68
2023/03/28 05:03:03;;;;;;;4.30;1.90;;;-1.50;99.90;;;;;;5094296;28;20812;-68
2023/03/28 05:05:30;;;;;;;1.93;1.07;;;-1.50;99.90;;;;;;5089274;28;20811;-68
2023/03/28 05:07:57;;;;;;;3.37;1.80;;;-1.50;99.90;;;;;;5099232;28;20434;-68
2023/03/28 05:10:23;;;;;;;2.60;1.13;;;-1.60;99.90;;;;;;5102717;28;20813;-68
2023/03/28 05:12:49;;;;;;;4.70;1.57;;;-1.60;99.90;;;;;;5095741;28;20427;-68
2023/03/28 05:15:15;;;;;;;3.13;1.30;;;-1.60;99.90;;;;;;5103758;28;20424;-68
2023/03/28 05:17:40;;;;;;;5.67;1.57;;;-1.60;99.90;;;;;;5101378;28;20422;-68
2023/03/28 05:20:08;;;;;;;3.80;2.30;;;-1.60;99.90;;;;;;5100250;28;20264;-68
2023/03/28 05:22:35;;;;;;;5.00;1.33;;;-1.60;99.90;;;;;;5098262;28;20706;-68
2023/03/28 05:25:01;;;;;;;2.83;1.80;;;-1.60;99.90;;;;;;5097409;28;20778;-68
2023/03/28 05:27:26;;;;;;;5.67;1.63;;;-1.60;99.90;;;;;;5103354;28;20418;-68
2023/03/28 05:29:52;;;;;;;4.00;2.17;;;-1.60;99.90;;;;;;5102363;28;20184;-68
2023/03/28 05:32:18;;;;;;;3.80;2.80;;;-1.60;99.90;;;;;;5098982;28;20662;-68
2023/03/28 05:34:43;;;;;;;5.43;1.77;;;-1.70;99.90;;;;;;5099661;28;20214;-68
2023/03/28 05:37:09;;;;;;;5.67;3.30;;;-1.70;99.90;;;;;;5097377;28;20177;-68
2023/03/28 05:39:34;;;;;;;13.10;5.27;;;-1.70;99.90;;;;;;5096901;28;20184;-68
2023/03/28 05:42:00;;;;;;;13.50;5.13;;;-1.70;99.90;;;;;;5097865;28;20653;-68
2023/03/28 05:44:27;;;;;;;21.70;7.20;;;-1.70;99.90;;;;;;5099157;28;20296;-68
2023/03/28 05:46:53;;;;;;;22.67;9.27;;;-1.70;99.90;;;;;;5098334;28;20907;-68
2023/03/28 05:49:18;;;;;;;36.57;11.00;;;-1.60;99.90;;;;;;5103664;28;20210;-68
2023/03/28 05:51:44;;;;;;;27.23;10.40;;;-1.60;99.90;;;;;;5085798;28;20630;-68
2023/03/28 05:54:10;;;;;;;35.73;10.33;;;-1.50;99.90;;;;;;5100138;28;20180;-68
2023/03/28 05:56:36;;;;;;;25.20;11.13;;;-1.50;99.90;;;;;;5101453;28;20449;-68
2023/03/28 05:59:02;;;;;;;33.40;8.87;;;-1.50;99.90;;;;;;5099618;28;20222;-68
2023/03/28 06:01:28;;;;;;;18.57;8.17;;;-1.40;99.90;;;;;;5102410;28;20417;-69
2023/03/28 06:03:54;;;;;;;13.03;5.80;;;-1.40;99.90;;;;;;5101528;28;20565;-68
2023/03/28 06:06:20;;;;;;;9.23;4.30;;;-1.30;99.90;;;;;;5097895;28;20217;-68
2023/03/28 06:08:46;;;;;;;9.90;2.00;;;-1.30;99.90;;;;;;5098908;28;20432;-68
2023/03/28 06:11:12;;;;;;;6.47;3.17;;;-1.30;99.90;;;;;;5096504;28;20509;-68
2023/03/28 06:13:38;;;;;;;4.80;3.37;;;-1.20;99.90;;;;;;5094264;28;20694;-68
2023/03/28 06:16:04;;;;;;;11.93;3.20;;;-1.20;99.90;;;;;;5097378;28;20427;-68
2023/03/28 06:18:30;;;;;;;8.73;2.43;;;-1.30;99.90;;;;;;5099951;28;20172;-68
2023/03/28 06:20:56;;;;;;;15.07;5.10;;;-1.30;99.90;;;;;;5093568;28;20426;-68
2023/03/28 06:23:22;;;;;;;38.50;8.97;;;-1.20;99.90;;;;;;5103067;28;20936;-68
2023/03/28 06:25:48;;;;;;;21.50;6.00;;;-1.10;99.90;;;;;;5092331;28;20594;-68
2023/03/28 06:28:13;;;;;;;7.67;3.40;;;-1.00;99.90;;;;;;5100583;28;20475;-68
2023/03/28 06:30:39;;;;;;;5.70;1.70;;;-0.90;99.90;;;;;;5091165;28;20652;-68
2023/03/28 06:33:05;;;;;;;6.60;2.10;;;-0.90;99.90;;;;;;5093215;28;20188;-69
2023/03/28 06:35:34;;;;;;;4.67;2.23;;;-0.70;99.90;;;;;;5094368;28;20180;-69
2023/03/28 06:38:00;;;;;;;3.13;1.80;;;-0.70;99.90;;;;;;5094792;28;20922;-69
2023/03/28 06:40:26;;;;;;;16.53;2.10;;;-0.60;99.90;;;;;;5101046;28;20420;-68
2023/03/28 06:42:52;;;;;;;4.30;1.93;;;-0.50;99.90;;;;;;5099283;28;20218;-70
2023/03/28 06:45:18;;;;;;;3.03;1.80;;;-0.40;99.90;;;;;;5097896;28;20192;-70
2023/03/28 06:47:44;;;;;;;4.97;2.30;;;-0.20;99.90;;;;;;5099434;28;20755;-70
2023/03/28 06:50:10;;;;;;;4.87;2.87;;;0.00;99.90;;;;;;5095087;28;20411;-70
2023/03/28 06:52:36;;;;;;;6.77;2.53;;;0.20;99.90;;;;;;5091775;28;20456;-70
2023/03/28 06:55:02;;;;;;;3.70;2.23;;;0.30;99.90;;;;;;5101952;28;20418;-70
2023/03/28 06:57:27;;;;;;;4.03;2.03;;;0.50;99.90;;;;;;5101767;28;20176;-71
2023/03/28 06:59:53;;;;;;;6.33;2.27;;;0.60;99.90;;;;;;5098397;28;20426;-71
2023/03/28 07:02:18;;;;;;;6.30;1.87;;;0.70;99.90;;;;;;5106059;28;20168;-71
2023/03/28 07:04:44;;;;;;;5.17;2.20;;;0.80;99.90;;;;;;5101853;28;20279;-71
2023/03/28 07:07:10;;;;;;;2.27;1.30;;;0.80;99.90;;;;;;5102172;28;20183;-71
2023/03/28 07:09:36;;;;;;;4.73;2.20;;;1.00;99.90;;;;;;5102693;28;20263;-70
2023/03/28 07:12:03;;;;;;;4.97;2.83;;;1.10;99.90;;;;;;5094293;28;20180;-71
2023/03/28 07:14:28;;;;;;;4.03;2.03;;;1.40;99.90;;;;;;5103537;28;20439;-70
2023/03/28 07:16:54;;;;;;;9.10;2.70;;;1.70;99.90;;;;;;5104501;28;20893;-70
2023/03/28 07:19:21;;;;;;;11.33;2.20;;;2.10;99.90;;;;;;5101037;28;20179;-70
2023/03/28 07:21:46;;;;;;;2.47;1.20;;;2.60;99.90;;;;;;5101163;28;20207;-70
2023/03/28 07:24:12;;;;;;;4.47;1.20;;;3.30;99.90;;;;;;5099535;28;20504;-70
2023/03/28 07:26:38;;;;;;;5.30;1.40;;;4.00;99.90;;;;;;5100802;28;20184;-70
2023/03/28 07:29:03;;;;;;;3.70;1.10;;;4.60;99.90;;;;;;5101529;28;20215;-70
2023/03/28 07:31:29;;;;;;;5.47;1.47;;;5.00;99.90;;;;;;5102395;28;20199;-70
2023/03/28 07:33:56;;;;;;;2.33;1.10;;;5.40;99.90;;;;;;5096103;28;20188;-71
2023/03/28 07:36:23;;;;;;;6.23;1.73;;;5.80;97.80;;;;;;5103501;28;20410;-71
2023/03/28 07:38:49;;;;;;;4.63;1.27;;;6.30;97.10;;;;;;5096500;28;20521;-71
2023/03/28 07:41:16;;;;;;;2.33;0.97;;;6.90;95.10;;;;;;5104513;28;20789;-71
2023/03/28 07:43:42;;;;;;;4.17;0.90;;;8.20;93.70;;;;;;5101630;28;20988;-70
2023/03/28 07:46:12;;;;;;;3.70;1.67;;;8.40;91.90;;;;;;5102342;28;20462;-71
2023/03/28 07:48:39;;;;;;;3.03;0.90;;;9.00;90.80;;;;;;5101116;28;20176;-71
2023/03/28 07:51:06;;;;;;;6.17;1.73;;;9.50;89.80;;;;;;5098360;28;20419;-71
2023/03/28 07:53:33;;;;;;;6.30;1.33;;;9.60;86.30;;;;;;5102190;28;20432;-71
2023/03/28 07:55:59;;;;;;;3.70;1.77;;;9.80;86.40;;;;;;5103902;28;20422;-71
2023/03/28 07:58:25;;;;;;;2.90;1.17;;;9.60;83.50;;;;;;5098730;28;21051;-70
2023/03/28 08:00:51;;;;;;;4.33;1.87;;;9.70;82.60;;;;;;5101415;28;20184;-71
2023/03/28 08:03:17;;;;;;;2.83;1.13;;;9.80;83.00;;;;;;5098764;28;20204;-71
2023/03/28 08:05:48;;;;;;;2.57;1.40;;;10.20;82.00;;;;;;5103352;28;20237;-71
2023/03/28 08:08:14;;;;;;;4.63;2.13;;;9.80;80.90;;;;;;5099985;28;20410;-71
2023/03/28 08:10:39;;;;;;;5.07;1.47;;;9.60;83.90;;;;;;5103719;28;20409;-71
2023/03/28 08:13:05;;;;;;;2.17;0.90;;;9.70;83.60;;;;;;5095575;28;20198;-71
2023/03/28 08:15:31;;;;;;;2.80;1.53;;;10.30;80.40;;;;;;5105482;28;20459;-71
2023/03/28 08:17:57;;;;;;;2.63;1.07;;;10.50;80.40;;;;;;5100170;28;20184;-71
2023/03/28 08:20:22;;;;;;;2.87;1.83;;;10.80;78.40;;;;;;5100764;28;20184;-71
2023/03/28 08:22:48;;;;;;;2.20;0.97;;;11.30;77.00;;;;;;5100395;28;20262;-71
2023/03/28 08:25:14;;;;;;;3.40;1.30;;;11.00;76.20;;;;;;5100070;28;20444;-71
2023/03/28 08:27:39;;;;;;;3.23;1.40;;;10.50;78.60;;;;;;5100053;28;20671;-71
2023/03/28 08:30:06;;;;;;;2.40;1.50;;;10.80;79.10;;;;;;5106238;28;20964;-71
2023/03/28 08:32:32;;;;;;;4.60;1.17;;;10.60;79.70;;;;;;5097523;28;20175;-70
2023/03/28 08:35:01;;;;;;;5.23;2.40;;;10.80;78.70;;;;;;5102941;28;20429;-70
2023/03/28 08:37:28;;;;;;;3.20;1.10;;;10.50;79.10;;;;;;5102567;28;20168;-71
2023/03/28 08:39:54;;;;;;;4.13;1.63;;;10.00;76.90;;;;;;5102929;28;20497;-70
2023/03/28 08:42:44;;;;;;;2.27;1.00;;;10.30;79.70;;;;;;5099747;28;20510;-70
2023/03/28 08:45:43;;;;;;;9.73;1.60;;;9.90;79.60;;;;;;5105519;28;20741;-70
2023/03/28 08:48:17;;;;;;;8.47;1.37;;;9.50;80.90;;;;;;5105387;28;20405;-70
2023/03/28 08:50:46;;;;;;;2.87;0.93;;;9.20;80.90;;;;;;5099419;28;20405;-70
2023/03/28 08:53:21;;;;;;;5.30;1.60;;;9.20;79.80;;;;;;5102105;28;20885;-70
2023/03/28 08:55:47;;;;;;;7.60;1.60;;;8.50;82.40;;;;;;5102461;28;20428;-70
2023/03/28 08:58:20;;;;;;;2.37;1.47;;;8.60;82.50;;;;;;5099277;28;20934;-70
2023/03/28 09:00:47;;;;;;;1.70;0.80;;;8.90;82.60;;;;;;5100423;28;20409;-70
2023/03/28 09:03:17;;;;;;;5.87;1.80;;;9.00;82.20;;;;;;5102362;28;20454;-70
2023/03/28 09:05:54;;;;;;;4.23;1.10;;;9.20;85.20;;;;;;5103778;28;20414;-70
2023/03/28 09:08:23;;;;;;;5.07;1.60;;;9.30;80.70;;;;;;5100536;28;20830;-71
2023/03/28 09:11:04;;;;;;;1.83;0.90;;;9.20;81.50;;;;;;5103079;28;20402;-70
2023/03/28 09:14:07;;;;;;;6.13;1.20;;;9.50;81.70;;;;;;5098244;28;20420;-71
2023/03/28 09:16:56;;;;;;;5.57;1.00;;;9.20;80.20;;;;;;5099221;28;20428;-70
2023/03/28 09:19:49;;;;;;;4.40;1.17;;;9.20;80.40;;;;;;5082953;28;20429;-70
2023/03/28 09:22:33;;;;;;;5.13;1.23;;;8.70;82.00;;;;;;5094787;28;20848;-71
2023/03/28 09:25:26;;;;;;;3.10;1.30;;;8.80;81.40;;;;;;5098612;28;20808;-70
2023/03/28 09:28:19;;;;;;;2.07;1.13;;;8.90;82.70;;;;;;5099921;28;20434;-70
2023/03/28 09:30:49;;;;;;;3.23;1.17;;;9.00;80.20;;;;;;5097735;28;20414;-70
2023/03/28 09:33:21;;;;;;;2.67;1.10;;;8.60;82.00;;;;;;5102678;28;20462;-70
2023/03/28 09:35:50;;;;;;;2.80;1.17;;;8.70;83.70;;;;;;5100665;28;20422;-70
2023/03/28 09:38:23;;;;;;;2.93;1.00;;;8.50;82.90;;;;;;5100747;28;20436;-70
2023/03/28 09:40:52;;;;;;;5.93;1.60;;;8.70;79.80;;;;;;5100294;28;20442;-71
2023/03/28 09:43:33;;;;;;;3.57;1.00;;;8.00;81.60;;;;;;5103909;28;20551;-71
2023/03/28 09:46:13;;;;;;;4.90;1.20;;;7.60;85.30;;;;;;5101683;28;20418;-72
2023/03/28 09:48:39;;;;;;;2.03;1.03;;;7.30;84.90;;;;;;5097662;28;20422;-72
2023/03/28 09:51:11;;;;;;;2.83;1.20;;;7.70;86.20;;;;;;5090858;28;20557;-70
2023/03/28 09:53:37;;;;;;;2.60;0.90;;;7.40;86.10;;;;;;5102088;28;20188;-70
2023/03/28 09:56:27;;;;;;;2.77;1.17;;;7.30;83.70;;;;;;5104281;28;20902;-70
2023/03/28 09:58:54;;;;;;;2.33;1.33;;;6.90;85.90;;;;;;5097977;28;20229;-70
2023/03/28 10:01:42;;;;;;;6.53;2.30;;;6.80;83.10;;;;;;5105640;28;20409;-70
2023/03/28 10:04:17;;;;;;;2.93;1.20;;;6.50;82.00;;;;;;5102123;28;20456;-70
2023/03/28 10:06:44;;;;;;;2.83;1.47;;;6.30;82.00;;;;;;5098121;28;20410;-70
2023/03/28 10:09:22;;;;;;;1.40;0.83;;;6.10;84.70;;;;;;5103338;28;20413;-70
2023/03/28 10:11:51;;;;;;;2.23;1.37;;;6.40;83.70;;;;;;5103467;28;20922;-70
2023/03/28 10:14:36;;;;;;;4.60;1.00;;;6.60;83.40;;;;;;5104370;28;20414;-70
2023/03/28 10:17:15;;;;;;;2.30;1.03;;;6.70;83.60;;;;;;5088635;28;20414;-70
2023/03/28 10:19:43;;;;;;;5.17;1.33;;;6.60;84.00;;;;;;5094501;28;20410;-70
2023/03/28 10:22:31;;;;;;;5.27;1.80;;;6.60;87.40;;;;;;5097839;28;20458;-69
2023/03/28 10:24:58;;;;;;;2.83;0.87;;;6.90;86.00;;;;;;5095065;28;20462;-70
2023/03/28 10:27:25;;;;;;;6.13;1.63;;;7.00;82.60;;;;;;5101151;28;20418;-70
2023/03/28 10:29:54;;;;;;;3.00;1.27;;;7.10;83.80;;;;;;5103700;28;20421;-70
2023/03/28 10:32:28;;;;;;;5.53;1.63;;;7.10;83.30;;;;;;5100349;28;20417;-70
2023/03/28 10:35:25;;;;;;;2.50;1.20;;;7.10;77.10;;;;;;5089578;28;20463;-70
2023/03/28 10:37:54;;;;;;;4.30;0.93;;;7.30;79.80;;;;;;5082428;28;20490;-70
2023/03/28 10:40:19;;;;;;;4.50;1.33;;;7.30;78.30;;;;;;5091293;28;20410;-70
2023/03/28 10:42:49;;;;;;;2.50;0.90;;;7.50;77.30;;;;;;5098082;28;20989;-70
2023/03/28 10:45:42;;;;;;;2.47;1.10;;;7.80;76.30;;;;;;5100788;28;20187;-69
2023/03/28 10:48:16;;;;;;;2.90;1.10;;;7.50;75.20;;;;;;5100203;28;20429;-69
2023/03/28 10:50:52;;;;;;;2.17;0.90;;;7.80;76.50;;;;;;5092333;28;20415;-69
2023/03/28 10:53:36;;;;;;;1.73;0.70;;;8.10;75.70;;;;;;5104928;28;20483;-69
2023/03/28 10:56:15;;;;;;;3.57;1.50;;;8.00;74.10;;;;;;5103936;28;20470;-69
2023/03/28 10:59:03;;;;;;;1.77;0.80;;;7.80;72.70;;;;;;5097394;28;20426;-69
2023/03/28 11:01:38;;;;;;;2.00;1.20;;;7.90;72.40;;;;;;5101292;28;20767;-69
2023/03/28 11:04:15;;;;;;;3.40;1.57;;;8.20;74.90;;;;;;5108516;28;20472;-70
2023/03/28 11:06:58;;;;;;;1.90;0.87;;;8.20;70.70;;;;;;5098755;28;20414;-69
2023/03/28 11:09:40;;;;;;;2.87;0.87;;;8.30;75.20;;;;;;5105428;28;20961;-70
2023/03/28 11:12:18;;;;;;;8.20;1.30;;;8.40;72.50;;;;;;5095907;28;21029;-69
2023/03/28 11:15:04;;;;;;;3.10;1.00;;;8.40;71.60;;;;;;5098119;28;20418;-70
2023/03/28 11:17:57;;;;;;;2.40;0.93;;;8.70;73.20;;;;;;5099454;28;20418;-70
2023/03/28 11:20:52;;;;;;;2.50;1.07;;;9.10;72.10;;;;;;5107241;28;20402;-70
2023/03/28 11:23:41;;;;;;;2.27;1.00;;;9.20;72.00;;;;;;5101807;28;20500;-70
2023/03/28 11:26:13;;;;;;;2.47;1.53;;;8.80;69.60;;;;;;5099236;28;20415;-70
2023/03/28 11:29:03;;;;;;;1.83;0.93;;;8.70;71.20;;;;;;5103756;28;20406;-70
2023/03/28 11:31:44;;;;;;;1.63;0.93;;;8.30;70.40;;;;;;5088555;28;20394;-70
2023/03/28 11:34:29;;;;;;;8.33;1.93;;;8.40;70.80;;;;;;5096050;28;20509;-70
2023/03/28 11:37:26;;;;;;;4.03;0.97;;;8.60;70.50;;;;;;5100115;28;20417;-71
2023/03/28 11:39:56;;;;;;;3.70;1.20;;;8.40;67.50;;;;;;5095477;28;20836;-70
2023/03/28 11:42:39;;;;;;;2.80;1.17;;;8.40;70.90;;;;;;5100011;28;20508;-70
2023/03/28 11:45:21;;;;;;;3.47;1.20;;;8.50;69.50;;;;;;5095182;28;20449;-70
2023/03/28 11:48:04;;;;;;;2.70;1.07;;;8.20;70.30;;;;;;5102072;28;20441;-70
2023/03/28 11:50:41;;;;;;;7.60;1.53;;;8.30;72.30;;;;;;5095433;28;20766;-70
2023/03/28 11:53:23;;;;;;;3.77;0.87;;;8.30;70.40;;;;;;5093164;28;20447;-70
2023/03/28 11:55:57;;;;;;;3.67;1.40;;;8.50;69.80;;;;;;5096552;28;20418;-70
2023/03/28 11:58:25;;;;;;;2.97;1.30;;;8.40;69.80;;;;;;5099610;28;20405;-70
2023/03/28 12:01:02;;;;;;;3.47;1.27;;;8.40;69.30;;;;;;5101595;28;20416;-70
2023/03/28 12:03:54;;;;;;;3.00;1.00;;;8.50;68.80;;;;;;5096986;28;20461;-70
2023/03/28 12:06:43;;;;;;;6.30;2.17;;;8.50;73.00;;;;;;5102391;28;20429;-70
2023/03/28 12:09:30;;;;;;;2.70;1.30;;;8.70;72.60;;;;;;5101469;28;20913;-70
2023/03/28 12:12:05;;;;;;;3.03;1.50;;;8.80;71.00;;;;;;5093557;28;20410;-70
2023/03/28 12:14:56;;;;;;;1.50;0.70;;;8.70;68.10;;;;;;5100041;28;20448;-71
2023/03/28 12:17:35;;;;;;;5.30;1.27;;;8.90;67.80;;;;;;5104556;28;20851;-71
2023/03/28 12:20:01;;;;;;;4.00;1.70;;;8.90;67.20;;;;;;5099968;28;20423;-71
2023/03/28 12:22:43;;;;;;;2.07;1.00;;;9.00;70.40;;;;;;5102610;28;20406;-70
2023/03/28 12:25:28;;;;;;;2.93;1.43;;;9.00;66.20;;;;;;5098923;28;20191;-70
2023/03/28 12:28:31;;;;;;;5.73;0.80;;;8.90;67.10;;;;;;5099280;28;20494;-71
2023/03/28 12:31:15;;;;;;;2.03;1.27;;;9.10;69.50;;;;;;5098416;28;20421;-70
2023/03/28 12:34:26;;;;;;;7.10;1.20;;;9.20;63.70;;;;;;5095850;28;20421;-70
2023/03/28 12:37:03;;;;;;;4.07;1.20;;;9.30;65.80;;;;;;5042280;28;20479;-70
2023/03/28 12:39:34;;;;;;;2.80;1.53;;;9.40;67.20;;;;;;5091918;28;20408;-71
2023/03/28 12:42:02;;;;;;;3.47;1.00;;;9.60;62.10;;;;;;5100993;28;20836;-70
2023/03/28 12:44:37;;;;;;;2.50;1.20;;;9.60;60.40;;;;;;5102044;28;20464;-70
2023/03/28 12:47:14;;;;;;;15.27;6.33;;;9.70;65.80;;;;;;5096942;28;20417;-70
2023/03/28 12:49:50;;;;;;;4.83;1.50;;;9.90;62.50;;;;;;5101558;28;20435;-71
2023/03/28 12:52:42;;;;;;;1.77;0.60;;;10.10;59.90;;;;;;5084644;28;20429;-70
2023/03/28 12:55:30;;;;;;;3.27;1.13;;;10.00;63.50;;;;;;5099808;28;20479;-70
2023/03/28 12:58:19;;;;;;;1.90;0.90;;;9.40;61.90;;;;;;5089740;28;20508;-70
2023/03/28 13:00:57;;;;;;;1.60;0.80;;;9.60;64.40;;;;;;5094371;28;20418;-69
2023/03/28 13:04:03;;;;;;;2.57;1.50;;;9.80;63.50;;;;;;5095094;28;20446;-70
2023/03/28 13:07:02;;;;;;;1.70;0.90;;;10.10;63.40;;;;;;5096675;28;20449;-70
2023/03/28 13:09:34;;;;;;;1.60;0.80;;;10.60;59.90;;;;;;5086043;28;20548;-70
2023/03/28 13:12:25;;;;;;;3.60;0.97;;;10.30;59.50;;;;;;5093451;28;20939;-70
2023/03/28 13:15:24;;;;;;;1.60;0.77;;;10.80;58.70;;;;;;5086910;28;20491;-70
2023/03/28 13:18:21;;;;;;;2.30;1.30;;;10.60;57.50;;;;;;5096294;28;20463;-69
2023/03/28 13:20:50;;;;;;;15.80;5.70;;;10.60;60.70;;;;;;5088491;28;20433;-70